Time,TemperatureF,DewpointF,PressureIn,WindDirection,WindDirectionDegrees,WindSpeedMPH,WindSpeedGustMPH,Humidity,HourlyPrecipIn,Conditions,Clouds,dailyrainin,SoftwareType,DateUTC
2013-02-10 00:00:00,40.3,22.2,30.30,South,180,2.2,3.8,48,0.00,,,0.00,pywws,2013-02-10 05:00:00,
2013-02-10 00:02:00,40.3,22.2,30.29,SE,135,2.2,3.1,48,0.00,,,0.00,pywws,2013-02-10 05:02:00,
2013-02-10 00:08:00,40.5,21.8,30.29,South,180,3.1,5.4,47,0.00,,,0.00,pywws,2013-02-10 05:08:00,
2013-02-10 00:13:00,40.6,22.0,30.29,East,90,2.2,3.8,47,0.00,,,0.00,pywws,2013-02-10 05:13:00,
2013-02-10 00:19:00,40.8,22.2,30.29,East,90,3.1,4.5,47,0.00,,,0.00,pywws,2013-02-10 05:19:00,
2013-02-10 00:20:00,40.6,22.0,30.29,East,90,2.2,4.5,47,0.00,,,0.00,pywws,2013-02-10 05:20:00,
2013-02-10 00:26:00,40.8,22.2,30.29,South,180,3.1,5.4,47,0.00,,,0.00,pywws,2013-02-10 05:26:00,
2013-02-10 00:32:00,40.6,22.0,30.29,NE,45,2.2,3.8,47,0.00,,,0.00,pywws,2013-02-10 05:32:00,
2013-02-10 00:37:00,40.5,21.8,30.29,SW,225,3.8,6.0,47,0.00,,,0.00,pywws,2013-02-10 05:37:00,
2013-02-10 00:43:00,40.3,21.7,30.29,East,90,2.2,3.1,47,0.00,,,0.00,pywws,2013-02-10 05:43:00,
2013-02-10 00:48:00,40.1,22.0,30.29,East,90,3.1,4.5,48,0.00,,,0.00,pywws,2013-02-10 05:48:00,
2013-02-10 00:54:00,40.1,22.0,30.29,SW,225,3.1,4.5,48,0.00,,,0.00,pywws,2013-02-10 05:54:00,
2013-02-10 01:00:00,40.1,22.0,30.29,South,180,1.6,3.1,48,0.00,,,0.00,pywws,2013-02-10 06:00:00,
2013-02-10 01:07:00,39.9,21.8,30.29,SW,225,2.2,3.1,48,0.00,,,0.00,pywws,2013-02-10 06:07:00,
2013-02-10 01:12:00,39.9,21.8,30.29,East,90,2.2,3.8,48,0.00,,,0.00,pywws,2013-02-10 06:12:00,
2013-02-10 01:18:00,40.1,22.0,30.29,East,90,2.2,5.4,48,0.00,,,0.00,pywws,2013-02-10 06:18:00,
2013-02-10 01:24:00,40.3,22.2,30.29,SE,135,4.5,11.4,48,0.00,,,0.00,pywws,2013-02-10 06:24:00,
2013-02-10 01:29:00,40.3,21.7,30.29,SW,225,3.8,6.0,47,0.00,,,0.00,pywws,2013-02-10 06:29:00,
2013-02-10 01:35:00,40.5,21.8,30.29,SE,135,1.6,2.2,47,0.00,,,0.00,pywws,2013-02-10 06:35:00,
2013-02-10 01:41:00,40.5,21.8,30.29,South,180,2.2,6.0,47,0.00,,,0.00,pywws,2013-02-10 06:41:00,
2013-02-10 01:47:00,40.6,22.0,30.29,NNW,338,2.2,4.5,47,0.00,,,0.00,pywws,2013-02-10 06:47:00,
2013-02-10 01:52:00,40.6,22.0,30.29,North,0,3.1,6.0,47,0.00,,,0.00,pywws,2013-02-10 06:52:00,
2013-02-10 01:58:00,40.8,22.2,30.29,SE,135,3.1,4.5,47,0.00,,,0.00,pywws,2013-02-10 06:58:00,
2013-02-10 02:04:00,41.2,21.5,30.29,South,180,3.8,6.0,45,0.00,,,0.00,pywws,2013-02-10 07:04:00,
2013-02-10 02:09:00,41.2,21.5,30.29,SE,135,2.2,3.8,45,0.00,,,0.00,pywws,2013-02-10 07:09:00,
2013-02-10 02:15:00,41.2,22.0,30.29,South,180,2.2,3.8,46,0.00,,,0.00,pywws,2013-02-10 07:15:00,
2013-02-10 02:20:00,41.2,22.0,30.29,ENE,68,1.6,3.1,46,0.00,,,0.00,pywws,2013-02-10 07:20:00,
2013-02-10 02:26:00,41.0,21.8,30.29,East,90,2.2,4.5,46,0.00,,,0.00,pywws,2013-02-10 07:26:00,
2013-02-10 02:32:00,41.2,22.0,30.30,ENE,68,2.2,4.5,46,0.00,,,0.00,pywws,2013-02-10 07:32:00,
2013-02-10 02:37:00,41.2,22.0,30.29,East,90,3.1,4.5,46,0.00,,,0.00,pywws,2013-02-10 07:37:00,
2013-02-10 02:43:00,41.0,22.3,30.29,NE,45,1.6,2.2,47,0.00,,,0.00,pywws,2013-02-10 07:43:00,
2013-02-10 02:48:00,40.8,22.7,30.29,East,90,2.2,6.0,48,0.00,,,0.00,pywws,2013-02-10 07:48:00,
2013-02-10 02:54:00,40.6,22.5,30.29,SW,225,3.8,6.9,48,0.00,,,0.00,pywws,2013-02-10 07:54:00,
2013-02-10 03:00:00,40.8,22.7,30.29,NE,45,1.6,2.2,48,0.00,,,0.00,pywws,2013-02-10 08:00:00,
2013-02-10 03:05:00,40.8,22.7,30.29,NE,45,1.6,2.2,48,0.00,,,0.00,pywws,2013-02-10 08:05:00,
2013-02-10 03:11:00,41.7,21.4,30.29,West,270,2.2,4.5,44,0.00,,,0.00,pywws,2013-02-10 08:11:00,
2013-02-10 03:16:00,41.9,21.1,30.29,South,180,3.1,6.0,43,0.00,,,0.00,pywws,2013-02-10 08:16:00,
2013-02-10 03:22:00,42.1,21.2,30.29,ENE,68,3.8,8.3,43,0.00,,,0.00,pywws,2013-02-10 08:22:00,
2013-02-10 03:28:00,42.3,21.4,30.29,NW,315,2.2,4.5,43,0.00,,,0.00,pywws,2013-02-10 08:28:00,
2013-02-10 03:33:00,42.3,21.4,30.29,SE,135,4.5,6.9,43,0.00,,,0.00,pywws,2013-02-10 08:33:00,
2013-02-10 03:39:00,42.4,20.4,30.28,East,90,3.8,6.9,41,0.00,,,0.00,pywws,2013-02-10 08:39:00,
2013-02-10 03:44:00,42.4,19.8,30.28,East,90,3.8,6.0,40,0.00,,,0.00,pywws,2013-02-10 08:44:00,
2013-02-10 03:50:00,42.4,19.3,30.29,SE,135,3.1,6.0,39,0.00,,,0.00,pywws,2013-02-10 08:50:00,
2013-02-10 03:56:00,42.4,19.8,30.29,East,90,5.4,9.8,40,0.00,,,0.00,pywws,2013-02-10 08:56:00,
2013-02-10 04:01:00,42.4,19.8,30.29,East,90,4.5,7.6,40,0.00,,,0.00,pywws,2013-02-10 09:01:00,
2013-02-10 04:07:00,42.3,19.7,30.29,East,90,3.8,6.9,40,0.00,,,0.00,pywws,2013-02-10 09:07:00,
2013-02-10 04:12:00,42.3,20.3,30.29,East,90,4.5,8.3,41,0.00,,,0.00,pywws,2013-02-10 09:12:00,
2013-02-10 04:18:00,42.1,20.7,30.29,SSE,158,3.8,8.3,42,0.00,,,0.00,pywws,2013-02-10 09:18:00,
2013-02-10 04:24:00,42.1,21.2,30.29,East,90,2.2,3.8,43,0.00,,,0.00,pywws,2013-02-10 09:24:00,
2013-02-10 04:29:00,41.9,20.5,30.29,East,90,3.8,5.4,42,0.00,,,0.00,pywws,2013-02-10 09:29:00,
2013-02-10 04:35:00,41.9,21.1,30.29,East,90,3.1,5.4,43,0.00,,,0.00,pywws,2013-02-10 09:35:00,
2013-02-10 04:40:00,41.7,20.9,30.29,SW,225,2.2,3.1,43,0.00,,,0.00,pywws,2013-02-10 09:40:00,
2013-02-10 04:46:00,41.5,20.7,30.29,East,90,2.2,3.1,43,0.00,,,0.00,pywws,2013-02-10 09:46:00,
2013-02-10 04:52:00,41.4,20.6,30.29,East,90,4.5,6.9,43,0.00,,,0.00,pywws,2013-02-10 09:52:00,
2013-02-10 04:57:00,41.4,20.6,30.29,ENE,68,4.5,6.9,43,0.00,,,0.00,pywws,2013-02-10 09:57:00,
2013-02-10 05:03:00,41.5,20.7,30.29,East,90,2.2,3.8,43,0.00,,,0.00,pywws,2013-02-10 10:03:00,
2013-02-10 05:08:00,41.5,20.7,30.29,SW,225,3.8,8.3,43,0.00,,,0.00,pywws,2013-02-10 10:08:00,
2013-02-10 05:14:00,41.5,20.7,30.29,East,90,1.6,3.8,43,0.00,,,0.00,pywws,2013-02-10 10:14:00,
2013-02-10 05:20:00,41.5,20.7,30.30,East,90,2.2,4.5,43,0.00,,,0.00,pywws,2013-02-10 10:20:00,
2013-02-10 05:25:00,41.5,20.7,30.30,South,180,5.4,8.3,43,0.00,,,0.00,pywws,2013-02-10 10:25:00,
2013-02-10 05:31:00,41.5,20.7,30.32,SE,135,3.8,6.0,43,0.00,,,0.00,pywws,2013-02-10 10:31:00,
2013-02-10 05:36:00,41.4,21.1,30.31,East,90,6.0,11.4,44,0.00,,,0.00,pywws,2013-02-10 10:36:00,
2013-02-10 05:42:00,41.4,21.1,30.31,East,90,6.0,8.3,44,0.00,,,0.00,pywws,2013-02-10 10:42:00,
2013-02-10 05:48:00,41.4,21.1,30.30,East,90,2.2,3.8,44,0.00,,,0.00,pywws,2013-02-10 10:48:00,
2013-02-10 05:53:00,41.2,20.4,30.31,SW,225,3.8,7.6,43,0.00,,,0.00,pywws,2013-02-10 10:53:00,
2013-02-10 05:59:00,41.4,20.6,30.31,NE,45,3.1,4.5,43,0.00,,,0.00,pywws,2013-02-10 10:59:00,
2013-02-10 06:04:00,41.4,20.6,30.31,SE,135,2.2,4.5,43,0.00,,,0.00,pywws,2013-02-10 11:04:00,
2013-02-10 06:10:00,41.4,20.6,30.31,South,180,6.9,9.8,43,0.00,,,0.00,pywws,2013-02-10 11:10:00,
2013-02-10 06:16:00,41.5,20.7,30.31,East,90,6.9,10.7,43,0.00,,,0.00,pywws,2013-02-10 11:16:00,
2013-02-10 06:21:00,41.5,19.6,30.32,SE,135,5.4,8.3,41,0.00,,,0.00,pywws,2013-02-10 11:21:00,
2013-02-10 06:27:00,41.5,20.7,30.31,East,90,5.4,11.4,43,0.00,,,0.00,pywws,2013-02-10 11:27:00,
2013-02-10 06:32:00,41.5,19.0,30.31,ENE,68,4.5,7.6,40,0.00,,,0.00,pywws,2013-02-10 11:32:00,
2013-02-10 06:38:00,41.7,19.2,30.32,ENE,68,4.5,9.2,40,0.00,,,0.00,pywws,2013-02-10 11:38:00,
2013-02-10 06:44:00,41.7,19.2,30.32,NE,45,3.1,5.4,40,0.00,,,0.00,pywws,2013-02-10 11:44:00,
2013-02-10 06:49:00,41.5,19.0,30.33,East,90,4.5,6.9,40,0.00,,,0.00,pywws,2013-02-10 11:49:00,
2013-02-10 06:55:00,41.7,18.6,30.32,SE,135,4.5,6.9,39,0.00,,,0.00,pywws,2013-02-10 11:55:00,
2013-02-10 07:01:00,41.5,18.4,30.32,SE,135,4.5,7.6,39,0.00,,,0.00,pywws,2013-02-10 12:01:00,
2013-02-10 07:07:00,41.5,17.8,30.32,ENE,68,4.5,7.6,38,0.00,,,0.00,pywws,2013-02-10 12:07:00,
2013-02-10 07:12:00,41.7,18.0,30.32,South,180,2.2,3.1,38,0.00,,,0.00,pywws,2013-02-10 12:12:00,
2013-02-10 07:18:00,41.5,17.8,30.32,East,90,3.1,4.5,38,0.00,,,0.00,pywws,2013-02-10 12:18:00,
2013-02-10 07:24:00,41.7,18.0,30.32,SE,135,3.8,7.6,38,0.00,,,0.00,pywws,2013-02-10 12:24:00,
2013-02-10 07:29:00,41.7,17.4,30.32,East,90,3.8,6.9,37,0.00,,,0.00,pywws,2013-02-10 12:29:00,
2013-02-10 07:35:00,41.7,17.4,30.32,East,90,6.0,9.2,37,0.00,,,0.00,pywws,2013-02-10 12:35:00,
2013-02-10 07:40:00,41.9,17.5,30.33,South,180,4.5,8.3,37,0.00,,,0.00,pywws,2013-02-10 12:40:00,
2013-02-10 07:46:00,42.3,17.9,30.33,SSW,202,4.5,6.9,37,0.00,,,0.00,pywws,2013-02-10 12:46:00,
2013-02-10 07:52:00,43.0,17.2,30.33,SE,135,3.1,5.4,35,0.00,,,0.00,pywws,2013-02-10 12:52:00,
2013-02-10 07:57:00,43.7,17.2,30.33,South,180,4.5,6.0,34,0.00,,,0.00,pywws,2013-02-10 12:57:00,
2013-02-10 08:03:00,43.7,16.5,30.33,South,180,3.8,6.0,33,0.00,,,0.00,pywws,2013-02-10 13:03:00,
2013-02-10 08:08:00,43.9,16.7,30.32,South,180,5.4,9.2,33,0.00,,,0.00,pywws,2013-02-10 13:08:00,
2013-02-10 08:14:00,44.1,16.8,30.33,SW,225,5.4,8.3,33,0.00,,,0.00,pywws,2013-02-10 13:14:00,
2013-02-10 08:20:00,43.5,16.3,30.34,South,180,6.0,15.9,33,0.00,,,0.00,pywws,2013-02-10 13:20:00,
2013-02-10 08:25:00,44.1,16.8,30.34,NNE,22,6.0,13.0,33,0.00,,,0.00,pywws,2013-02-10 13:25:00,
2013-02-10 08:31:00,44.1,16.1,30.34,NW,315,5.4,9.8,32,0.00,,,0.00,pywws,2013-02-10 13:31:00,
2013-02-10 08:36:00,44.2,16.3,30.34,SE,135,6.0,9.8,32,0.00,,,0.00,pywws,2013-02-10 13:36:00,
2013-02-10 08:42:00,44.1,16.1,30.34,ESE,112,6.0,11.4,32,0.00,,,0.00,pywws,2013-02-10 13:42:00,
2013-02-10 08:48:00,44.1,16.8,30.33,East,90,6.0,10.7,33,0.00,,,0.00,pywws,2013-02-10 13:48:00,
2013-02-10 08:53:00,44.1,16.8,30.34,SSE,158,5.4,8.3,33,0.00,,,0.00,pywws,2013-02-10 13:53:00,
2013-02-10 08:58:00,44.1,16.1,30.34,NE,45,5.4,6.9,32,0.00,,,0.00,pywws,2013-02-10 13:58:00,
2013-02-10 09:04:00,44.1,16.1,30.34,South,180,3.8,6.0,32,0.00,,,0.00,pywws,2013-02-10 14:04:00,
2013-02-10 09:09:00,43.9,16.0,30.34,ENE,68,2.2,3.8,32,0.00,,,0.00,pywws,2013-02-10 14:09:00,
2013-02-10 09:15:00,43.9,16.0,30.34,ESE,112,6.0,9.2,32,0.00,,,0.00,pywws,2013-02-10 14:15:00,
2013-02-10 09:20:00,43.9,16.0,30.34,NE,45,6.9,12.1,32,0.00,,,0.00,pywws,2013-02-10 14:20:00,
2013-02-10 09:26:00,44.2,17.0,30.35,SE,135,4.5,8.3,33,0.00,,,0.00,pywws,2013-02-10 14:26:00,
2013-02-10 09:32:00,44.6,15.9,30.35,NE,45,4.5,7.6,31,0.00,,,0.00,pywws,2013-02-10 14:32:00,
2013-02-10 09:37:00,45.1,17.1,30.34,East,90,1.6,3.1,32,0.00,,,0.00,pywws,2013-02-10 14:37:00,
2013-02-10 09:43:00,45.5,16.6,30.34,SE,135,2.2,3.8,31,0.00,,,0.00,pywws,2013-02-10 14:43:00,
2013-02-10 09:48:00,45.9,16.2,30.34,SW,225,7.6,13.6,30,0.00,,,0.00,pywws,2013-02-10 14:48:00,
2013-02-10 09:54:00,45.3,15.0,30.34,South,180,6.9,12.1,29,0.00,,,0.00,pywws,2013-02-10 14:54:00,
2013-02-10 10:00:00,45.0,14.6,30.35,North,0,4.5,5.4,29,0.00,,,0.00,pywws,2013-02-10 15:00:00,
2013-02-10 10:05:00,44.6,15.9,30.35,SW,225,4.5,9.8,31,0.00,,,0.00,pywws,2013-02-10 15:05:00,
2013-02-10 10:11:00,44.4,16.4,30.34,East,90,5.4,6.9,32,0.00,,,0.00,pywws,2013-02-10 15:11:00,
2013-02-10 10:16:00,44.4,16.4,30.34,South,180,4.5,8.3,32,0.00,,,0.00,pywws,2013-02-10 15:16:00,
2013-02-10 10:22:00,44.4,16.4,30.35,NE,45,6.0,10.7,32,0.00,,,0.00,pywws,2013-02-10 15:22:00,
2013-02-10 10:28:00,44.4,16.4,30.34,SW,225,5.4,9.8,32,0.00,,,0.00,pywws,2013-02-10 15:28:00,
2013-02-10 10:33:00,44.4,16.4,30.35,NE,45,3.8,7.6,32,0.00,,,0.00,pywws,2013-02-10 15:33:00,
2013-02-10 10:39:00,44.6,16.6,30.34,East,90,6.0,11.4,32,0.00,,,0.00,pywws,2013-02-10 15:39:00,
2013-02-10 10:44:00,45.0,16.9,30.34,East,90,4.5,9.8,32,0.00,,,0.00,pywws,2013-02-10 15:44:00,
2013-02-10 10:50:00,45.5,18.1,30.34,South,180,6.0,8.3,33,0.00,,,0.00,pywws,2013-02-10 15:50:00,
2013-02-10 10:56:00,46.0,19.3,30.34,SW,225,7.6,15.2,34,0.00,,,0.00,pywws,2013-02-10 15:56:00,
2013-02-10 11:01:00,46.2,18.7,30.33,ENE,68,4.5,6.9,33,0.00,,,0.00,pywws,2013-02-10 16:01:00,
2013-02-10 11:07:00,46.8,20.6,30.33,East,90,5.4,7.6,35,0.00,,,0.00,pywws,2013-02-10 16:07:00,
2013-02-10 11:12:00,46.6,19.0,30.33,SW,225,4.5,6.9,33,0.00,,,0.00,pywws,2013-02-10 16:12:00,
2013-02-10 11:18:00,46.4,18.9,30.33,SE,135,11.4,15.9,33,0.00,,,0.00,pywws,2013-02-10 16:18:00,
2013-02-10 11:24:00,46.2,18.0,30.33,East,90,6.9,10.7,32,0.00,,,0.00,pywws,2013-02-10 16:24:00,
2013-02-10 11:29:00,46.4,18.9,30.32,East,90,9.2,13.6,33,0.00,,,0.00,pywws,2013-02-10 16:29:00,
2013-02-10 11:35:00,46.9,20.1,30.32,NE,45,6.9,13.0,34,0.00,,,0.00,pywws,2013-02-10 16:35:00,
2013-02-10 11:40:00,47.1,19.5,30.33,NE,45,5.4,9.8,33,0.00,,,0.00,pywws,2013-02-10 16:40:00,
2013-02-10 11:46:00,47.5,19.8,30.32,South,180,4.5,7.6,33,0.00,,,0.00,pywws,2013-02-10 16:46:00,
2013-02-10 11:52:00,48.0,21.0,30.31,South,180,5.4,9.2,34,0.00,,,0.00,pywws,2013-02-10 16:52:00,
2013-02-10 11:57:00,48.6,20.8,30.31,East,90,6.9,13.0,33,0.00,,,0.00,pywws,2013-02-10 16:57:00,
2013-02-10 12:03:00,48.6,20.1,30.31,North,0,8.3,15.9,32,0.00,,,0.00,pywws,2013-02-10 17:03:00,
2013-02-10 12:09:00,47.7,20.7,30.31,East,90,9.8,16.8,34,0.00,,,0.00,pywws,2013-02-10 17:09:00,
2013-02-10 12:15:00,47.3,21.1,30.31,SSE,158,7.6,13.6,35,0.00,,,0.00,pywws,2013-02-10 17:15:00,
2013-02-10 12:20:00,47.3,21.1,30.32,East,90,9.2,18.3,35,0.00,,,0.00,pywws,2013-02-10 17:20:00,
2013-02-10 12:26:00,47.3,21.7,30.31,East,90,6.0,9.2,36,0.00,,,0.00,pywws,2013-02-10 17:26:00,
2013-02-10 12:32:00,47.3,21.7,30.31,ESE,112,6.0,11.4,36,0.00,,,0.00,pywws,2013-02-10 17:32:00,
2013-02-10 12:37:00,47.3,21.7,30.30,NE,45,6.0,8.3,36,0.00,,,0.00,pywws,2013-02-10 17:37:00,
2013-02-10 12:43:00,47.7,22.0,30.29,SE,135,7.6,13.6,36,0.00,,,0.00,pywws,2013-02-10 17:43:00,
2013-02-10 12:48:00,48.0,22.4,30.29,South,180,6.9,10.7,36,0.00,,,0.00,pywws,2013-02-10 17:48:00,
2013-02-10 12:54:00,48.7,21.6,30.28,South,180,6.9,13.0,34,0.00,,,0.00,pywws,2013-02-10 17:54:00,
2013-02-10 13:00:00,49.3,22.8,30.27,East,90,7.6,10.7,35,0.00,,,0.00,pywws,2013-02-10 18:00:00,
2013-02-10 13:06:00,49.3,22.1,30.27,NW,315,3.8,6.9,34,0.00,,,0.00,pywws,2013-02-10 18:06:00,
2013-02-10 13:12:00,49.1,22.0,30.25,East,90,4.5,7.6,34,0.00,,,0.00,pywws,2013-02-10 18:12:00,
2013-02-10 13:17:00,49.1,22.0,30.25,East,90,9.8,15.2,34,0.00,,,0.00,pywws,2013-02-10 18:17:00,
2013-02-10 13:23:00,50.2,21.5,30.25,SW,225,10.7,16.8,32,0.00,,,0.00,pywws,2013-02-10 18:23:00,
2013-02-10 13:28:00,51.6,20.4,30.25,East,90,6.9,9.8,29,0.00,,,0.00,pywws,2013-02-10 18:28:00,
2013-02-10 13:34:00,52.3,20.2,30.24,South,180,6.0,13.0,28,0.00,,,0.00,pywws,2013-02-10 18:34:00,
2013-02-10 13:40:00,52.9,19.8,30.23,SE,135,8.3,11.4,27,0.00,,,0.00,pywws,2013-02-10 18:40:00,
2013-02-10 13:45:00,52.9,19.8,30.22,NW,315,5.4,6.9,27,0.00,,,0.00,pywws,2013-02-10 18:45:00,
2013-02-10 13:51:00,52.7,17.9,30.22,SE,135,9.2,15.2,25,0.00,,,0.00,pywws,2013-02-10 18:51:00,
2013-02-10 13:56:00,52.2,16.5,30.22,SE,135,7.6,16.8,24,0.00,,,0.00,pywws,2013-02-10 18:56:00,
2013-02-10 14:02:00,51.6,17.9,30.23,WNW,292,6.9,9.8,26,0.00,,,0.00,pywws,2013-02-10 19:02:00,
2013-02-10 14:08:00,52.3,15.7,30.23,SW,225,4.5,8.3,23,0.00,,,0.00,pywws,2013-02-10 19:08:00,
2013-02-10 14:13:00,53.6,15.7,30.24,SE,135,6.0,8.3,22,0.00,,,0.00,pywws,2013-02-10 19:13:00,
2013-02-10 14:19:00,54.0,16.0,30.23,East,90,7.6,13.0,22,0.00,,,0.00,pywws,2013-02-10 19:19:00,
2013-02-10 14:24:00,54.0,16.0,30.23,East,90,6.0,10.7,22,0.00,,,0.00,pywws,2013-02-10 19:24:00,
2013-02-10 14:30:00,54.0,17.0,30.22,East,90,9.8,16.8,23,0.00,,,0.00,pywws,2013-02-10 19:30:00,
2013-02-10 14:36:00,54.1,18.2,30.22,South,180,5.4,11.4,24,0.00,,,0.00,pywws,2013-02-10 19:36:00,
2013-02-10 14:41:00,53.6,17.7,30.23,South,180,7.6,10.7,24,0.00,,,0.00,pywws,2013-02-10 19:41:00,
2013-02-10 14:47:00,52.9,20.7,30.22,East,90,5.4,9.2,28,0.00,,,0.00,pywws,2013-02-10 19:47:00,
2013-02-10 14:52:00,52.9,22.3,30.22,North,0,6.9,9.8,30,0.00,,,0.00,pywws,2013-02-10 19:52:00,
2013-02-10 14:58:00,52.7,23.7,30.21,South,180,6.9,9.8,32,0.00,,,0.00,pywws,2013-02-10 19:58:00,
2013-02-10 15:04:00,51.8,23.6,30.20,South,180,6.0,11.4,33,0.00,,,0.00,pywws,2013-02-10 20:04:00,
2013-02-10 15:09:00,51.8,25.0,30.20,NE,45,2.2,3.8,35,0.00,,,0.00,pywws,2013-02-10 20:09:00,
2013-02-10 15:15:00,51.6,26.9,30.19,East,90,7.6,13.6,38,0.00,,,0.00,pywws,2013-02-10 20:15:00,
2013-02-10 15:20:00,51.4,26.7,30.19,East,90,9.2,13.6,38,0.00,,,0.00,pywws,2013-02-10 20:20:00,
2013-02-10 15:26:00,51.3,27.2,30.18,East,90,3.1,4.5,39,0.00,,,0.00,pywws,2013-02-10 20:26:00,
2013-02-10 15:32:00,51.3,28.4,30.19,East,90,5.4,10.7,41,0.00,,,0.00,pywws,2013-02-10 20:32:00,
2013-02-10 15:37:00,50.7,29.0,30.20,NE,45,4.5,11.4,43,0.00,,,0.00,pywws,2013-02-10 20:37:00,
2013-02-10 15:43:00,50.5,28.9,30.20,East,90,9.8,15.2,43,0.00,,,0.00,pywws,2013-02-10 20:43:00,
2013-02-10 15:48:00,50.4,28.7,30.19,East,90,7.6,12.1,43,0.00,,,0.00,pywws,2013-02-10 20:48:00,
2013-02-10 15:54:00,50.4,28.7,30.20,SW,225,6.0,13.6,43,0.00,,,0.00,pywws,2013-02-10 20:54:00,
2013-02-10 16:00:00,50.2,28.6,30.21,South,180,6.9,9.8,43,0.00,,,0.00,pywws,2013-02-10 21:00:00,
2013-02-10 16:06:00,50.2,28.6,30.21,SE,135,5.4,9.2,43,0.00,,,0.00,pywws,2013-02-10 21:06:00,
2013-02-10 16:12:00,50.0,28.4,30.21,South,180,4.5,8.3,43,0.00,,,0.00,pywws,2013-02-10 21:12:00,
2013-02-10 16:17:00,49.6,28.6,30.22,East,90,7.6,13.0,44,0.00,,,0.00,pywws,2013-02-10 21:17:00,
2013-02-10 16:23:00,49.3,28.3,30.21,East,90,6.0,8.3,44,0.00,,,0.00,pywws,2013-02-10 21:23:00,
2013-02-10 16:28:00,49.1,28.1,30.21,East,90,7.6,13.6,44,0.00,,,0.00,pywws,2013-02-10 21:28:00,
2013-02-10 16:34:00,48.9,28.0,30.21,NW,315,8.3,13.0,44,0.00,,,0.00,pywws,2013-02-10 21:34:00,
2013-02-10 16:40:00,48.7,27.8,30.20,East,90,8.3,15.2,44,0.00,,,0.00,pywws,2013-02-10 21:40:00,
2013-02-10 16:45:00,48.6,27.6,30.20,East,90,5.4,8.3,44,0.00,,,0.00,pywws,2013-02-10 21:45:00,
2013-02-10 16:51:00,48.4,27.5,30.20,SE,135,5.4,8.3,44,0.00,,,0.00,pywws,2013-02-10 21:51:00,
2013-02-10 16:56:00,48.0,28.8,30.20,SE,135,6.9,11.4,47,0.00,,,0.00,pywws,2013-02-10 21:56:00,
2013-02-10 17:02:00,47.1,31.8,30.20,South,180,4.5,7.6,55,0.00,,,0.00,pywws,2013-02-10 22:02:00,
2013-02-10 17:08:00,46.2,31.4,30.21,South,180,4.5,10.7,56,0.00,,,0.00,pywws,2013-02-10 22:08:00,
2013-02-10 17:13:00,45.9,31.5,30.21,South,180,4.5,9.2,57,0.00,,,0.00,pywws,2013-02-10 22:13:00,
2013-02-10 17:19:00,45.5,31.2,30.22,South,180,4.5,11.4,57,0.00,,,0.00,pywws,2013-02-10 22:19:00,
2013-02-10 17:24:00,45.3,31.4,30.21,South,180,3.8,5.4,58,0.00,,,0.00,pywws,2013-02-10 22:24:00,
2013-02-10 17:30:00,45.1,31.3,30.21,ENE,68,2.2,3.8,58,0.01,,,0.01,pywws,2013-02-10 22:30:00,
2013-02-10 17:36:00,45.1,32.1,30.22,East,90,3.8,9.2,60,0.01,,,0.01,pywws,2013-02-10 22:36:00,
2013-02-10 17:41:00,44.8,32.6,30.21,SE,135,4.5,6.9,62,0.01,,,0.01,pywws,2013-02-10 22:41:00,
2013-02-10 17:48:00,44.2,33.2,30.21,ENE,68,5.4,8.3,65,0.02,,,0.02,pywws,2013-02-10 22:48:00,
2013-02-10 17:53:00,43.3,34.6,30.21,NNE,22,4.5,6.9,71,0.04,,,0.04,pywws,2013-02-10 22:53:00,
2013-02-10 17:59:00,43.0,34.6,30.22,South,180,2.2,3.8,72,0.04,,,0.04,pywws,2013-02-10 22:59:00,
2013-02-10 18:04:00,42.8,34.8,30.22,SE,135,3.1,6.0,73,0.05,,,0.05,pywws,2013-02-10 23:04:00,
2013-02-10 18:10:00,42.4,35.4,30.22,ESE,112,3.1,6.9,76,0.07,,,0.07,pywws,2013-02-10 23:10:00,
2013-02-10 18:16:00,41.9,35.5,30.22,East,90,4.5,6.0,78,0.08,,,0.08,pywws,2013-02-10 23:16:00,
2013-02-10 18:21:00,41.7,36.0,30.22,ESE,112,3.1,6.0,80,0.09,,,0.09,pywws,2013-02-10 23:21:00,
2013-02-10 18:27:00,41.4,36.6,30.22,South,180,1.6,3.8,83,0.09,,,0.09,pywws,2013-02-10 23:27:00,
2013-02-10 18:33:00,41.2,36.7,30.22,SE,135,3.1,4.5,84,0.09,,,0.11,pywws,2013-02-10 23:33:00,
2013-02-10 18:39:00,41.0,36.5,30.23,SE,135,2.2,4.5,84,0.11,,,0.12,pywws,2013-02-10 23:39:00,
2013-02-10 18:44:00,41.0,36.8,30.22,SE,135,4.5,6.9,85,0.11,,,0.13,pywws,2013-02-10 23:44:00,
2013-02-10 18:50:00,40.8,37.3,30.22,SE,135,3.8,6.0,87,0.11,,,0.13,pywws,2013-02-10 23:50:00,
2013-02-10 18:56:00,40.8,37.3,30.22,South,180,1.6,3.8,87,0.11,,,0.14,pywws,2013-02-10 23:56:00,
2013-02-10 19:02:00,40.8,37.3,30.23,West,270,3.8,6.0,87,0.09,,,0.14,pywws,2013-02-11 00:02:00,
2013-02-10 19:08:00,40.6,37.4,30.23,East,90,0.7,2.2,88,0.12,,,0.17,pywws,2013-02-11 00:08:00,
2013-02-10 19:13:00,40.5,37.5,30.23,West,270,2.2,4.5,89,0.11,,,0.18,pywws,2013-02-11 00:13:00,
2013-02-10 19:19:00,40.5,38.0,30.22,South,180,3.8,6.0,91,0.09,,,0.18,pywws,2013-02-11 00:19:00,
2013-02-10 19:24:00,40.5,38.3,30.23,NE,45,2.2,4.5,92,0.09,,,0.19,pywws,2013-02-11 00:24:00,
2013-02-10 19:30:00,40.3,38.1,30.22,East,90,3.1,5.4,92,0.08,,,0.19,pywws,2013-02-11 00:30:00,
2013-02-10 19:36:00,40.5,38.6,30.22,East,90,3.8,6.9,93,0.09,,,0.20,pywws,2013-02-11 00:36:00,
2013-02-10 19:41:00,40.5,38.6,30.22,SE,135,3.1,5.4,93,0.08,,,0.20,pywws,2013-02-11 00:41:00,
2013-02-10 19:47:00,40.5,38.9,30.21,SW,225,3.1,6.0,94,0.08,,,0.21,pywws,2013-02-11 00:47:00,
2013-02-10 19:53:00,40.3,38.7,30.22,SE,135,3.1,6.0,94,0.08,,,0.22,pywws,2013-02-11 00:53:00,
2013-02-10 19:59:00,40.3,38.7,30.22,SE,135,3.8,7.6,94,0.08,,,0.22,pywws,2013-02-11 00:59:00,
2013-02-10 20:04:00,40.3,38.7,30.24,SW,225,3.8,8.3,94,0.09,,,0.24,pywws,2013-02-11 01:04:00,
2013-02-10 20:10:00,40.3,38.7,30.24,NE,45,3.1,6.9,94,0.07,,,0.24,pywws,2013-02-11 01:10:00,
2013-02-10 20:16:00,40.3,39.0,30.25,South,180,5.4,9.8,95,0.07,,,0.25,pywws,2013-02-11 01:16:00,
2013-02-10 20:21:00,40.3,39.0,30.25,East,90,3.1,4.5,95,0.06,,,0.25,pywws,2013-02-11 01:21:00,
2013-02-10 20:27:00,40.3,39.0,30.25,SW,225,3.8,6.0,95,0.07,,,0.26,pywws,2013-02-11 01:27:00,
2013-02-10 20:32:00,40.3,39.0,30.25,SW,225,3.8,6.9,95,0.07,,,0.26,pywws,2013-02-11 01:32:00,
2013-02-10 20:38:00,40.5,39.4,30.25,SE,135,5.4,8.3,96,0.07,,,0.27,pywws,2013-02-11 01:38:00,
2013-02-10 20:44:00,40.5,39.4,30.25,East,90,3.8,7.6,96,0.07,,,0.27,pywws,2013-02-11 01:44:00,
2013-02-10 20:49:00,40.6,39.6,30.24,East,90,6.0,9.8,96,0.07,,,0.28,pywws,2013-02-11 01:49:00,
2013-02-10 20:55:00,40.6,39.9,30.24,NE,45,6.0,9.8,97,0.08,,,0.30,pywws,2013-02-11 01:55:00,
2013-02-10 21:00:00,40.8,40.0,30.23,SE,135,4.5,8.3,97,0.07,,,0.30,pywws,2013-02-11 02:00:00,
2013-02-10 21:06:00,40.8,40.0,30.22,SE,135,4.5,8.3,97,0.06,,,0.30,pywws,2013-02-11 02:06:00,
2013-02-10 21:12:00,41.0,40.2,30.22,NE,45,6.9,11.4,97,0.07,,,0.31,pywws,2013-02-11 02:12:00,
2013-02-10 21:17:00,41.4,40.6,30.22,NE,45,4.5,11.4,97,0.06,,,0.31,pywws,2013-02-11 02:17:00,
2013-02-10 21:23:00,41.4,40.6,30.22,East,90,4.5,6.9,97,0.06,,,0.31,pywws,2013-02-11 02:23:00,
2013-02-10 21:29:00,41.5,40.8,30.20,East,90,5.4,8.3,97,0.06,,,0.32,pywws,2013-02-11 02:29:00,
2013-02-10 21:35:00,41.5,40.8,30.19,South,180,4.5,9.2,97,0.05,,,0.32,pywws,2013-02-11 02:35:00,
2013-02-10 21:40:00,41.4,40.8,30.18,SSW,202,3.8,6.9,98,0.06,,,0.33,pywws,2013-02-11 02:40:00,
2013-02-10 21:46:00,41.4,40.8,30.17,SE,135,8.3,15.2,98,0.05,,,0.33,pywws,2013-02-11 02:46:00,
2013-02-10 21:52:00,41.4,40.8,30.16,SE,135,6.0,9.8,98,0.06,,,0.34,pywws,2013-02-11 02:52:00,
2013-02-10 21:57:00,41.5,41.0,30.16,ESE,112,3.8,6.0,98,0.05,,,0.34,pywws,2013-02-11 02:57:00,
2013-02-10 22:03:00,41.7,41.5,30.17,SE,135,4.5,6.9,99,0.05,,,0.34,pywws,2013-02-11 03:03:00,
2013-02-10 22:08:00,41.7,41.5,30.16,SE,135,9.8,15.9,99,0.05,,,0.34,pywws,2013-02-11 03:08:00,
2013-02-10 22:14:00,42.1,41.8,30.16,NNE,22,3.1,4.5,99,0.04,,,0.34,pywws,2013-02-11 03:14:00,
2013-02-10 22:20:00,42.3,42.0,30.16,East,90,7.6,12.1,99,0.04,,,0.34,pywws,2013-02-11 03:20:00,
2013-02-10 22:25:00,42.3,42.0,30.16,SE,135,7.6,12.1,99,0.04,,,0.34,pywws,2013-02-11 03:25:00,
2013-02-10 22:31:00,42.4,42.2,30.16,NE,45,6.0,9.2,99,0.02,,,0.34,pywws,2013-02-11 03:31:00,
2013-02-10 22:36:00,42.4,42.2,30.15,South,180,6.0,9.8,99,0.01,,,0.34,pywws,2013-02-11 03:36:00,
2013-02-10 22:42:00,42.4,42.2,30.15,East,90,8.3,13.6,99,0.01,,,0.34,pywws,2013-02-11 03:42:00,
2013-02-10 22:48:00,42.6,42.4,30.14,NNE,22,3.8,7.6,99,0.00,,,0.34,pywws,2013-02-11 03:48:00,
2013-02-10 22:53:00,42.8,42.3,30.15,East,90,7.6,16.8,98,0.00,,,0.34,pywws,2013-02-11 03:53:00,
2013-02-10 22:59:00,43.0,42.5,30.14,SE,135,7.6,12.1,98,0.00,,,0.34,pywws,2013-02-11 03:59:00,
2013-02-10 23:04:00,43.2,42.6,30.13,East,90,7.6,14.5,98,0.00,,,0.34,pywws,2013-02-11 04:04:00,
2013-02-10 23:10:00,43.2,42.6,30.11,East,90,7.6,13.0,98,0.00,,,0.34,pywws,2013-02-11 04:10:00,
2013-02-10 23:16:00,43.3,42.8,30.12,SE,135,6.0,11.4,98,0.00,,,0.34,pywws,2013-02-11 04:16:00,
2013-02-10 23:21:00,43.3,42.8,30.12,SE,135,8.3,14.5,98,0.00,,,0.34,pywws,2013-02-11 04:21:00,
2013-02-10 23:27:00,43.5,43.0,30.11,East,90,6.9,12.1,98,0.00,,,0.34,pywws,2013-02-11 04:27:00,
2013-02-10 23:32:00,43.7,43.2,30.11,SE,135,6.9,11.4,98,0.00,,,0.34,pywws,2013-02-11 04:32:00,
2013-02-10 23:38:00,43.7,43.2,30.12,ESE,112,6.0,9.2,98,0.00,,,0.34,pywws,2013-02-11 04:38:00,
2013-02-10 23:44:00,43.9,43.4,30.12,NE,45,5.4,8.3,98,0.00,,,0.34,pywws,2013-02-11 04:44:00,
2013-02-10 23:49:00,44.1,43.5,30.12,North,0,2.2,3.1,98,0.00,,,0.34,pywws,2013-02-11 04:49:00,
2013-02-10 23:55:00,44.2,43.7,30.12,South,180,6.0,9.2,98,0.00,,,0.34,pywws,2013-02-11 04:55:00,